Akebono — JG5644 — position and weather

sailwx.info

Track history (hours):
 
Tides and Currents Weather Stations Pressure Air Temp Water Temp Dewpoint Dewpoint Depression Visibility Wind Speed Wind Dir Waves Ship Positions

Akebono

Last reported at 2015-May-03 07:22 UTC. Time now 2015-May-03 10:50 UTC.
Position N 35°27' E 139°39'.

Length 33 m; draft 4.4 m.

Type: Tug. MMSI: 431000233.

Date/timePositionNaut miles runAvg speedWind from/ knotsBaromVisibWave heightAir tempDewpointWater temp
2015-May-03 07:22N 35°27' E 139°39'1 0.9
2015-May-03 06:33N 35°27' E 139°40'1 1.2
2015-May-03 05:34N 35°26' E 139°42'3 2.5
2015-May-03 04:33N 35°24' E 139°40'1 1.4
2015-May-03 03:33N 35°24' E 139°38'3 3.2
2015-May-03 02:33N 35°27' E 139°39'0 0.0
2015-May-03 01:33N 35°27' E 139°39'0 0.0
2015-May-03 00:33N 35°27' E 139°39'0 0.0
2015-May-02 23:33N 35°27' E 139°39'0 0.0
2015-May-02 22:33N 35°27' E 139°39'3 0.1
2015-Apr-30 23:33N 35°29' E 139°42'2 2.3
2015-Apr-30 22:34N 35°30' E 139°45'4 3.9
2015-Apr-30 21:34N 35°27' E 139°43'1 0.8
2015-Apr-30 20:33N 35°27' E 139°43'2 1.8
2015-Apr-30 19:33N 35°29' E 139°45'3 3.2
2015-Apr-30 18:33N 35°26' E 139°46'5 5.2
2015-Apr-30 17:33N 35°27' E 139°40'1 0.6
2015-Apr-30 16:33N 35°28' E 139°40'0 0.0
2015-Apr-30 15:34N 35°28' E 139°40'1 0.6
2015-Apr-30 14:33N 35°28' E 139°41'1 0.6
2015-Apr-30 13:33N 35°28' E 139°40'0 0.0
2015-Apr-30 12:33N 35°28' E 139°40'1 0.8
2015-Apr-30 11:34N 35°27' E 139°41'3 2.8
2015-Apr-30 10:33N 35°28' E 139°44'0 0.0
2015-Apr-30 09:33N 35°28' E 139°44'2 1.7
2015-Apr-30 08:33N 35°28' E 139°42'1 0.9
2015-Apr-30 07:33N 35°28' E 139°40'1 0.9
2015-Apr-30 06:33N 35°27' E 139°40'1 0.7
2015-Apr-30 05:33N 35°27' E 139°39'0 0.0
2015-Apr-30 04:33N 35°27' E 139°39'0 0.0
2015-Apr-30 03:34N 35°27' E 139°39'0 0.0
2015-Apr-30 02:33N 35°27' E 139°39'0 0.0
2015-Apr-30 01:33N 35°27' E 139°39'0 0.0
2015-Apr-30 00:33N 35°27' E 139°39'0 0.0
2015-Apr-29 23:33N 35°27' E 139°39'0 0.0
2015-Apr-29 22:33N 35°27' E 139°39'0 0.0
2015-Apr-29 21:33N 35°27' E 139°39'0 0.0
2015-Apr-29 20:33N 35°27' E 139°39'0 0.0
2015-Apr-28 07:08N 35°27' E 139°39'0 0.0
2015-Apr-28 06:33N 35°27' E 139°39'0 0.0
2015-Apr-28 05:33N 35°27' E 139°39'0 0.0
2015-Apr-28 04:33N 35°27' E 139°39'2 2.4
2015-Apr-28 03:33N 35°25' E 139°42'3 3.3
2015-Apr-28 02:34N 35°24' E 139°38'1 1.3
2015-Apr-28 01:33N 35°23' E 139°40'0 0.0
2015-Apr-28 00:34N 35°23' E 139°40'1 1.0
2015-Apr-27 23:33N 35°23' E 139°41'1 0.5
2015-Apr-27 22:33N 35°24' E 139°41'4 3.7
2015-Apr-27 21:33N 35°27' E 139°39'0 0.0
2015-Apr-27 10:22N 35°27' E 139°39'3 3.3
2015-Apr-27 09:34N 35°26' E 139°43'1 0.8
2015-Apr-27 08:33N 35°27' E 139°42'1 1.1
2015-Apr-27 07:33N 35°27' E 139°41'1 1.4
2015-Apr-27 06:33N 35°27' E 139°39'0 0.0
2015-Apr-27 05:33N 35°27' E 139°39'0 0.0
2015-Apr-27 04:33N 35°27' E 139°39'3 3.0
2015-Apr-27 03:33N 35°27' E 139°43'3 3.4
2015-Apr-27 02:33N 35°29' E 139°47'0 0.4
2015-Apr-27 01:33N 35°29' E 139°47'0 0.0
2015-Apr-27 00:33N 35°29' E 139°47'0 0.0
2015-Apr-26 23:33N 35°29' E 139°47'2 1.6
2015-Apr-26 22:33N 35°31' E 139°46'2 1.6
2015-Apr-26 21:33N 35°30' E 139°45'5 5.1
2015-Apr-26 20:33N 35°27' E 139°39'0 0.0
2015-Apr-25 07:07N 35°27' E 139°39'0 0.0
2015-Apr-25 06:33N 35°27' E 139°39'0 0.0
2015-Apr-25 05:33N 35°27' E 139°39'0 0.0
2015-Apr-25 04:33N 35°27' E 139°39'4 4.4
2015-Apr-25 03:33N 35°29' E 139°44'4 4.4
2015-Apr-25 02:33N 35°27' E 139°39'0 0.0
2015-Apr-25 01:33N 35°27' E 139°39'0 0.0
2015-Apr-25 00:33N 35°27' E 139°39'0 0.0
2015-Apr-24 23:33N 35°27' E 139°39'2 1.5
2015-Apr-24 22:33N 35°28' E 139°41'3 3.4
2015-Apr-24 21:33N 35°26' E 139°44'4 3.7
2015-Apr-24 20:33N 35°27' E 139°40'0 0.0
2015-Apr-24 09:33N 35°27' E 139°39'1 0.7
2015-Apr-24 08:33N 35°27' E 139°40'2 1.6
2015-Apr-24 07:33N 35°27' E 139°42'0 0.0
2015-Apr-24 06:33N 35°27' E 139°42'1 0.7
2015-Apr-24 05:33N 35°27' E 139°41'1 1.3
2015-Apr-24 04:34N 35°27' E 139°40'0 0.3
2015-Apr-24 03:33N 35°27' E 139°39'0 0.0
2015-Apr-24 02:34N 35°27' E 139°39'0 0.0
2015-Apr-24 01:33N 35°27' E 139°39'1 1.3
2015-Apr-24 00:34N 35°28' E 139°40'2 2.3
2015-Apr-23 23:34N 35°26' E 139°42'2 1.9
2015-Apr-23 22:34N 35°27' E 139°39'  
Track history (hours):
 
Tides and Currents Weather Stations Pressure Air Temp Water Temp Dewpoint Dewpoint Depression Visibility Wind Speed Wind Dir Waves Ship Positions

Akebono

Last reported at 2015-May-03 07:22 UTC. Time now 2015-May-03 10:50 UTC.
Position N 35°27' E 139°39'.

Length 33 m; draft 4.4 m.

Type: Tug. MMSI: 431000233.

Date/timePositionNaut miles runAvg speedWind from/ knotsBaromVisibWave heightAir tempDewpointWater temp
2015-May-03 07:22N 35°27' E 139°39'1 0.9
2015-May-03 06:33N 35°27' E 139°40'1 1.2
2015-May-03 05:34N 35°26' E 139°42'3 2.5
2015-May-03 04:33N 35°24' E 139°40'1 1.4
2015-May-03 03:33N 35°24' E 139°38'3 3.2
2015-May-03 02:33N 35°27' E 139°39'0 0.0
2015-May-03 01:33N 35°27' E 139°39'0 0.0
2015-May-03 00:33N 35°27' E 139°39'0 0.0
2015-May-02 23:33N 35°27' E 139°39'0 0.0
2015-May-02 22:33N 35°27' E 139°39'3 0.1
2015-Apr-30 23:33N 35°29' E 139°42'2 2.3
2015-Apr-30 22:34N 35°30' E 139°45'4 3.9
2015-Apr-30 21:34N 35°27' E 139°43'1 0.8
2015-Apr-30 20:33N 35°27' E 139°43'2 1.8
2015-Apr-30 19:33N 35°29' E 139°45'3 3.2
2015-Apr-30 18:33N 35°26' E 139°46'5 5.2
2015-Apr-30 17:33N 35°27' E 139°40'1 0.6
2015-Apr-30 16:33N 35°28' E 139°40'0 0.0
2015-Apr-30 15:34N 35°28' E 139°40'1 0.6
2015-Apr-30 14:33N 35°28' E 139°41'1 0.6
2015-Apr-30 13:33N 35°28' E 139°40'0 0.0
2015-Apr-30 12:33N 35°28' E 139°40'1 0.8
2015-Apr-30 11:34N 35°27' E 139°41'3 2.8
2015-Apr-30 10:33N 35°28' E 139°44'0 0.0
2015-Apr-30 09:33N 35°28' E 139°44'2 1.7
2015-Apr-30 08:33N 35°28' E 139°42'1 0.9
2015-Apr-30 07:33N 35°28' E 139°40'1 0.9
2015-Apr-30 06:33N 35°27' E 139°40'1 0.7
2015-Apr-30 05:33N 35°27' E 139°39'0 0.0
2015-Apr-30 04:33N 35°27' E 139°39'0 0.0
2015-Apr-30 03:34N 35°27' E 139°39'0 0.0
2015-Apr-30 02:33N 35°27' E 139°39'0 0.0
2015-Apr-30 01:33N 35°27' E 139°39'0 0.0
2015-Apr-30 00:33N 35°27' E 139°39'0 0.0
2015-Apr-29 23:33N 35°27' E 139°39'0 0.0
2015-Apr-29 22:33N 35°27' E 139°39'0 0.0
2015-Apr-29 21:33N 35°27' E 139°39'0 0.0
2015-Apr-29 20:33N 35°27' E 139°39'0 0.0
2015-Apr-28 07:08N 35°27' E 139°39'0 0.0
2015-Apr-28 06:33N 35°27' E 139°39'0 0.0
2015-Apr-28 05:33N 35°27' E 139°39'0 0.0
2015-Apr-28 04:33N 35°27' E 139°39'2 2.4
2015-Apr-28 03:33N 35°25' E 139°42'3 3.3
2015-Apr-28 02:34N 35°24' E 139°38'1 1.3
2015-Apr-28 01:33N 35°23' E 139°40'0 0.0
2015-Apr-28 00:34N 35°23' E 139°40'1 1.0
2015-Apr-27 23:33N 35°23' E 139°41'1 0.5
2015-Apr-27 22:33N 35°24' E 139°41'4 3.7
2015-Apr-27 21:33N 35°27' E 139°39'0 0.0
2015-Apr-27 10:22N 35°27' E 139°39'3 3.3
2015-Apr-27 09:34N 35°26' E 139°43'1 0.8
2015-Apr-27 08:33N 35°27' E 139°42'1 1.1
2015-Apr-27 07:33N 35°27' E 139°41'1 1.4
2015-Apr-27 06:33N 35°27' E 139°39'0 0.0
2015-Apr-27 05:33N 35°27' E 139°39'0 0.0
2015-Apr-27 04:33N 35°27' E 139°39'3 3.0
2015-Apr-27 03:33N 35°27' E 139°43'3 3.4
2015-Apr-27 02:33N 35°29' E 139°47'0 0.4
2015-Apr-27 01:33N 35°29' E 139°47'0 0.0
2015-Apr-27 00:33N 35°29' E 139°47'0 0.0
2015-Apr-26 23:33N 35°29' E 139°47'2 1.6
2015-Apr-26 22:33N 35°31' E 139°46'2 1.6
2015-Apr-26 21:33N 35°30' E 139°45'5 5.1
2015-Apr-26 20:33N 35°27' E 139°39'0 0.0
2015-Apr-25 07:07N 35°27' E 139°39'0 0.0
2015-Apr-25 06:33N 35°27' E 139°39'0 0.0
2015-Apr-25 05:33N 35°27' E 139°39'0 0.0
2015-Apr-25 04:33N 35°27' E 139°39'4 4.4
2015-Apr-25 03:33N 35°29' E 139°44'4 4.4
2015-Apr-25 02:33N 35°27' E 139°39'0 0.0
2015-Apr-25 01:33N 35°27' E 139°39'0 0.0
2015-Apr-25 00:33N 35°27' E 139°39'0 0.0
2015-Apr-24 23:33N 35°27' E 139°39'2 1.5
2015-Apr-24 22:33N 35°28' E 139°41'3 3.4
2015-Apr-24 21:33N 35°26' E 139°44'4 3.7
2015-Apr-24 20:33N 35°27' E 139°40'0 0.0
2015-Apr-24 09:33N 35°27' E 139°39'1 0.7
2015-Apr-24 08:33N 35°27' E 139°40'2 1.6
2015-Apr-24 07:33N 35°27' E 139°42'0 0.0
2015-Apr-24 06:33N 35°27' E 139°42'1 0.7
2015-Apr-24 05:33N 35°27' E 139°41'1 1.3
2015-Apr-24 04:34N 35°27' E 139°40'0 0.3
2015-Apr-24 03:33N 35°27' E 139°39'0 0.0
2015-Apr-24 02:34N 35°27' E 139°39'0 0.0
2015-Apr-24 01:33N 35°27' E 139°39'1 1.3
2015-Apr-24 00:34N 35°28' E 139°40'2 2.3
2015-Apr-23 23:34N 35°26' E 139°42'2 1.9
2015-Apr-23 22:34N 35°27' E 139°39'  

Dump ship's entire track history